Time,TemperatureF,DewpointF,PressureIn,WindDirection,WindDirectionDegrees,WindSpeedMPH,WindSpeedGustMPH,Humidity,HourlyPrecipIn,Conditions,Clouds,dailyrainin,SoftwareType,DateUTC
2013-08-17 00:10:00,57.0,53.2,30.20,ENE,68,0.0,0.0,87,0.00,,,0.00,Wunderground v.1.15,2013-08-17 04:10:00,
2013-08-17 00:20:00,57.0,53.2,30.21,ENE,69,0.0,0.0,87,0.00,,,0.00,Wunderground v.1.15,2013-08-17 04:20:00,
2013-08-17 00:30:00,56.9,53.4,30.22,ENE,69,0.0,0.0,88,0.00,,,0.00,Wunderground v.1.15,2013-08-17 04:30:00,
2013-08-17 00:40:00,56.9,53.7,30.22,ENE,69,0.0,0.0,89,0.00,,,0.00,Wunderground v.1.15,2013-08-17 04:40:00,
2013-08-17 00:50:00,56.7,53.2,30.22,ENE,68,0.0,0.0,88,0.00,,,0.00,Wunderground v.1.15,2013-08-17 04:50:00,
2013-08-17 00:59:00,56.9,53.1,30.22,ENE,68,0.0,0.0,87,0.00,,,0.00,Wunderground v.1.15,2013-08-17 04:59:00,
2013-08-17 01:09:00,56.9,52.8,30.22,ENE,68,0.0,0.0,86,0.00,,,0.00,Wunderground v.1.15,2013-08-17 05:09:00,
2013-08-17 01:19:00,56.5,52.7,30.22,ENE,68,0.0,0.0,87,0.00,,,0.00,Wunderground v.1.15,2013-08-17 05:19:00,
2013-08-17 01:29:00,55.6,52.4,30.22,ENE,68,0.0,0.0,89,0.00,,,0.00,Wunderground v.1.15,2013-08-17 05:29:00,
2013-08-17 01:40:00,55.1,52.5,30.22,ENE,69,0.0,0.0,91,0.00,,,0.00,Wunderground v.1.15,2013-08-17 05:40:00,
2013-08-17 01:50:00,54.8,52.5,30.23,ENE,68,0.0,0.0,92,0.00,,,0.00,Wunderground v.1.15,2013-08-17 05:50:00,
2013-08-17 01:59:00,54.7,52.7,30.23,ENE,68,0.0,0.0,93,0.00,,,0.00,Wunderground v.1.15,2013-08-17 05:59:00,
2013-08-17 02:09:00,54.5,52.5,30.23,ENE,69,0.0,0.0,93,0.00,,,0.00,Wunderground v.1.15,2013-08-17 06:09:00,
2013-08-17 02:19:00,54.4,53.0,30.23,ENE,68,0.0,0.0,95,0.00,,,0.00,Wunderground v.1.15,2013-08-17 06:19:00,
2013-08-17 02:30:00,53.9,52.5,30.23,ENE,68,0.0,0.0,95,0.00,,,0.00,Wunderground v.1.15,2013-08-17 06:30:00,
2013-08-17 02:40:00,53.6,52.5,30.23,ENE,69,0.0,0.0,96,0.00,,,0.00,Wunderground v.1.15,2013-08-17 06:40:00,
2013-08-17 02:49:00,53.8,53.0,30.24,ENE,69,0.0,0.0,97,0.00,,,0.00,Wunderground v.1.15,2013-08-17 06:49:00,
2013-08-17 02:59:00,53.9,53.1,30.24,ENE,68,0.0,0.0,97,0.00,,,0.00,Wunderground v.1.15,2013-08-17 06:59:00,
2013-08-17 03:10:00,53.9,53.1,30.24,ENE,68,0.0,0.0,97,0.00,,,0.00,Wunderground v.1.15,2013-08-17 07:10:00,
2013-08-17 03:20:00,53.5,52.7,30.23,ENE,69,0.0,0.0,97,0.00,,,0.00,Wunderground v.1.15,2013-08-17 07:20:00,
2013-08-17 03:30:00,52.9,52.1,30.23,ENE,68,0.0,0.0,97,0.00,,,0.00,Wunderground v.1.15,2013-08-17 07:30:00,
2013-08-17 03:40:00,52.9,52.4,30.23,ENE,69,0.0,0.0,98,0.00,,,0.00,Wunderground v.1.15,2013-08-17 07:40:00,
2013-08-17 03:50:00,52.9,52.4,30.23,ENE,68,0.0,0.0,98,0.00,,,0.00,Wunderground v.1.15,2013-08-17 07:50:00,
2013-08-17 03:59:00,52.8,52.5,30.23,ENE,69,0.0,0.0,99,0.00,,,0.00,Wunderground v.1.15,2013-08-17 07:59:00,
2013-08-17 04:10:00,52.3,51.8,30.24,ENE,68,0.0,0.0,98,0.00,,,0.00,Wunderground v.1.15,2013-08-17 08:10:00,
2013-08-17 04:20:00,52.3,52.0,30.24,ENE,69,0.0,0.0,99,0.00,,,0.00,Wunderground v.1.15,2013-08-17 08:20:00,
2013-08-17 04:29:00,52.2,51.9,30.24,ENE,68,0.0,0.0,99,0.00,,,0.00,Wunderground v.1.15,2013-08-17 08:29:00,
2013-08-17 04:39:00,52.5,52.2,30.24,ENE,68,0.0,0.0,99,0.00,,,0.00,Wunderground v.1.15,2013-08-17 08:39:00,
2013-08-17 04:50:00,52.6,52.3,30.24,ENE,69,0.0,0.0,99,0.00,,,0.00,Wunderground v.1.15,2013-08-17 08:50:00,
2013-08-17 05:00:00,52.5,52.2,30.25,ENE,68,0.0,0.0,99,0.00,,,0.00,Wunderground v.1.15,2013-08-17 09:00:00,
2013-08-17 05:10:00,52.5,52.5,30.25,ENE,68,0.0,0.0,100,0.00,,,0.00,Wunderground v.1.15,2013-08-17 09:10:00,
2013-08-17 05:19:00,52.6,52.6,30.25,ENE,68,0.0,0.0,100,0.00,,,0.00,Wunderground v.1.15,2013-08-17 09:19:00,
2013-08-17 05:30:00,52.6,52.6,30.25,ENE,68,0.0,0.0,100,0.00,,,0.00,Wunderground v.1.15,2013-08-17 09:30:00,
2013-08-17 05:40:00,52.3,52.3,30.25,ENE,69,0.0,0.0,100,0.00,,,0.00,Wunderground v.1.15,2013-08-17 09:40:00,
2013-08-17 05:50:00,52.0,52.0,30.26,ENE,68,0.0,0.0,100,0.00,,,0.00,Wunderground v.1.15,2013-08-17 09:50:00,
2013-08-17 05:59:00,51.9,51.9,30.26,ENE,68,0.0,0.0,100,0.00,,,0.00,Wunderground v.1.15,2013-08-17 09:59:00,
2013-08-17 06:09:00,51.3,51.3,30.26,ENE,68,0.0,0.0,100,0.00,,,0.00,Wunderground v.1.15,2013-08-17 10:09:00,
2013-08-17 06:19:00,51.0,51.0,30.27,ENE,69,0.0,0.0,100,0.00,,,0.00,Wunderground v.1.15,2013-08-17 10:19:00,
2013-08-17 06:29:00,51.1,51.1,30.27,SW,231,0.0,0.0,100,0.00,,,0.00,Wunderground v.1.15,2013-08-17 10:29:00,
2013-08-17 06:40:00,51.4,51.4,30.27,SW,231,0.0,0.0,100,0.00,,,0.00,Wunderground v.1.15,2013-08-17 10:40:00,
2013-08-17 06:50:00,52.2,52.2,30.27,SW,231,0.0,0.0,100,0.00,,,0.00,Wunderground v.1.15,2013-08-17 10:50:00,
2013-08-17 07:00:00,52.6,52.6,30.27,SW,231,0.0,0.0,100,0.00,,,0.00,Wunderground v.1.15,2013-08-17 11:00:00,
2013-08-17 07:10:00,52.6,52.6,30.27,SW,231,0.0,0.0,100,0.00,,,0.00,Wunderground v.1.15,2013-08-17 11:10:00,
2013-08-17 07:19:00,52.2,52.2,30.28,SW,231,0.0,0.0,100,0.00,,,0.00,Wunderground v.1.15,2013-08-17 11:19:00,
2013-08-17 07:29:00,52.3,52.3,30.28,SW,231,0.0,0.0,100,0.00,,,0.00,Wunderground v.1.15,2013-08-17 11:29:00,
2013-08-17 07:40:00,52.6,52.6,30.28,SW,231,0.0,0.0,100,0.00,,,0.00,Wunderground v.1.15,2013-08-17 11:40:00,
2013-08-17 07:50:00,53.5,53.5,30.28,SW,231,0.0,0.0,100,0.00,,,0.00,Wunderground v.1.15,2013-08-17 11:50:00,
2013-08-17 08:00:00,54.1,54.1,30.28,SW,231,0.0,0.0,100,0.00,,,0.00,Wunderground v.1.15,2013-08-17 12:00:00,
2013-08-17 08:10:00,54.5,54.5,30.28,SW,231,0.0,0.0,100,0.00,,,0.00,Wunderground v.1.15,2013-08-17 12:10:00,
2013-08-17 08:20:00,55.3,55.3,30.29,SW,231,0.0,0.0,100,0.00,,,0.00,Wunderground v.1.15,2013-08-17 12:20:00,
2013-08-17 08:30:00,56.7,56.7,30.29,SW,231,0.0,0.0,100,0.00,,,0.00,Wunderground v.1.15,2013-08-17 12:30:00,
2013-08-17 08:40:00,58.0,58.0,30.29,SW,231,0.0,0.0,100,0.00,,,0.00,Wunderground v.1.15,2013-08-17 12:40:00,
2013-08-17 08:49:00,59.5,59.2,30.29,SW,231,0.0,0.0,99,0.00,,,0.00,Wunderground v.1.15,2013-08-17 12:49:00,
2013-08-17 08:59:00,60.9,59.8,30.29,SW,231,0.0,0.0,96,0.00,,,0.00,Wunderground v.1.15,2013-08-17 12:59:00,
2013-08-17 09:09:00,62.3,60.2,30.29,NNE,24,0.0,0.0,93,0.00,,,0.00,Wunderground v.1.15,2013-08-17 13:09:00,
2013-08-17 09:20:00,63.1,59.8,30.29,NNE,18,0.0,0.0,89,0.00,,,0.00,Wunderground v.1.15,2013-08-17 13:20:00,
2013-08-17 09:30:00,64.7,59.8,30.29,NW,325,0.0,0.0,84,0.00,,,0.00,Wunderground v.1.15,2013-08-17 13:30:00,
2013-08-17 09:39:00,65.5,60.2,30.29,West,270,1.0,1.0,83,0.00,,,0.00,Wunderground v.1.15,2013-08-17 13:39:00,
2013-08-17 09:49:00,66.6,60.2,30.28,West,263,1.0,1.0,80,0.00,,,0.00,Wunderground v.1.15,2013-08-17 13:49:00,
2013-08-17 10:00:00,67.3,59.5,30.28,West,271,1.0,5.0,76,0.00,,,0.00,Wunderground v.1.15,2013-08-17 14:00:00,
2013-08-17 10:10:00,67.4,59.6,30.28,West,279,2.0,2.0,76,0.00,,,0.00,Wunderground v.1.15,2013-08-17 14:10:00,
2013-08-17 10:19:00,68.1,61.3,30.28,WNW,289,2.0,5.0,79,0.00,,,0.00,Wunderground v.1.15,2013-08-17 14:19:00,
2013-08-17 10:30:00,68.9,59.9,30.28,WSW,251,1.0,1.0,73,0.00,,,0.00,Wunderground v.1.15,2013-08-17 14:30:00,
2013-08-17 10:40:00,69.4,59.2,30.28,NW,305,0.0,0.0,70,0.00,,,0.00,Wunderground v.1.15,2013-08-17 14:40:00,
2013-08-17 10:50:00,70.3,61.2,30.29,SW,215,0.0,0.0,73,0.00,,,0.00,Wunderground v.1.15,2013-08-17 14:50:00,
2013-08-17 11:00:00,70.9,61.0,30.28,West,267,0.0,0.0,71,0.00,,,0.00,Wunderground v.1.15,2013-08-17 15:00:00,
2013-08-17 11:10:00,72.5,61.7,30.28,SW,214,0.0,0.0,69,0.00,,,0.00,Wunderground v.1.15,2013-08-17 15:10:00,
2013-08-17 11:20:00,73.5,61.9,30.29,SSW,210,0.0,0.0,67,0.00,,,0.00,Wunderground v.1.15,2013-08-17 15:20:00,
2013-08-17 11:30:00,74.6,62.1,30.29,West,262,0.0,0.0,65,0.00,,,0.00,Wunderground v.1.15,2013-08-17 15:30:00,
2013-08-17 11:39:00,74.4,59.1,30.29,WSW,257,0.0,1.0,59,0.00,,,0.00,Wunderground v.1.15,2013-08-17 15:39:00,
2013-08-17 11:50:00,73.3,60.4,30.29,WSW,246,1.0,1.0,64,0.00,,,0.00,Wunderground v.1.15,2013-08-17 15:50:00,
2013-08-17 12:00:00,73.7,58.9,30.28,WNW,285,0.0,0.0,60,0.00,,,0.00,Wunderground v.1.15,2013-08-17 16:00:00,
2013-08-17 12:10:00,74.2,58.5,30.28,WSW,238,0.0,0.0,58,0.00,,,0.00,Wunderground v.1.15,2013-08-17 16:10:00,
2013-08-17 12:19:00,75.8,60.0,30.28,SW,224,0.0,0.0,58,0.00,,,0.00,Wunderground v.1.15,2013-08-17 16:19:00,
2013-08-17 12:29:00,76.3,58.9,30.28,WNW,284,0.0,0.0,55,0.00,,,0.00,Wunderground v.1.15,2013-08-17 16:29:00,
2013-08-17 12:40:00,76.0,60.2,30.28,WNW,287,0.0,1.0,58,0.00,,,0.00,Wunderground v.1.15,2013-08-17 16:40:00,
2013-08-17 12:50:00,75.6,58.3,30.28,WNW,298,1.0,5.0,55,0.00,,,0.00,Wunderground v.1.15,2013-08-17 16:50:00,
2013-08-17 13:00:00,75.8,59.5,30.27,NW,308,1.0,1.0,57,0.00,,,0.00,Wunderground v.1.15,2013-08-17 17:00:00,
2013-08-17 13:09:00,77.2,59.8,30.27,SSE,159,0.0,5.0,55,0.00,,,0.00,Wunderground v.1.15,2013-08-17 17:09:00,
2013-08-17 13:19:00,77.4,61.5,30.27,WNW,291,0.0,5.0,58,0.00,,,0.00,Wunderground v.1.15,2013-08-17 17:19:00,
2013-08-17 13:30:00,76.5,59.1,30.27,West,261,1.0,1.0,55,0.00,,,0.00,Wunderground v.1.15,2013-08-17 17:30:00,
2013-08-17 13:40:00,77.0,61.6,30.27,WSW,249,1.0,5.0,59,0.00,,,0.00,Wunderground v.1.15,2013-08-17 17:40:00,
2013-08-17 13:50:00,75.8,59.0,30.26,NW,312,2.0,2.0,56,0.00,,,0.00,Wunderground v.1.15,2013-08-17 17:50:00,
2013-08-17 14:00:00,76.8,59.9,30.26,SW,229,0.0,5.0,56,0.00,,,0.00,Wunderground v.1.15,2013-08-17 18:00:00,
2013-08-17 14:09:00,78.3,61.3,30.26,WSW,246,0.0,5.0,56,0.00,,,0.00,Wunderground v.1.15,2013-08-17 18:09:00,
2013-08-17 14:19:00,78.5,57.7,30.26,SW,217,0.0,5.0,49,0.00,,,0.00,Wunderground v.1.15,2013-08-17 18:19:00,
2013-08-17 14:29:00,77.6,58.0,30.26,SSW,201,1.0,1.0,51,0.00,,,0.00,Wunderground v.1.15,2013-08-17 18:29:00,
2013-08-17 14:40:00,77.7,54.0,30.25,SSE,164,0.0,5.0,44,0.00,,,0.00,Wunderground v.1.15,2013-08-17 18:40:00,
2013-08-17 14:50:00,78.3,56.4,30.25,South,178,0.0,5.0,47,0.00,,,0.00,Wunderground v.1.15,2013-08-17 18:50:00,
2013-08-17 15:00:00,79.0,57.6,30.25,WSW,239,0.0,5.0,48,0.00,,,0.00,Wunderground v.1.15,2013-08-17 19:00:00,
2013-08-17 15:09:00,79.0,59.9,30.25,West,277,0.0,5.0,52,0.00,,,0.00,Wunderground v.1.15,2013-08-17 19:09:00,
2013-08-17 15:20:00,78.8,56.9,30.25,SSE,164,0.0,5.0,47,0.00,,,0.00,Wunderground v.1.15,2013-08-17 19:20:00,
2013-08-17 15:29:00,79.2,58.4,30.25,SSW,200,0.0,5.0,49,0.00,,,0.00,Wunderground v.1.15,2013-08-17 19:29:00,
2013-08-17 15:40:00,78.3,56.4,30.24,WNW,287,1.0,5.0,47,0.00,,,0.00,Wunderground v.1.15,2013-08-17 19:40:00,
2013-08-17 15:50:00,78.1,56.2,30.24,West,276,0.0,5.0,47,0.00,,,0.00,Wunderground v.1.15,2013-08-17 19:50:00,
2013-08-17 15:59:00,77.9,55.5,30.24,West,265,0.0,5.0,46,0.00,,,0.00,Wunderground v.1.15,2013-08-17 19:59:00,
2013-08-17 16:09:00,77.4,56.2,30.24,West,265,0.0,5.0,48,0.00,,,0.00,Wunderground v.1.15,2013-08-17 20:09:00,
2013-08-17 16:19:00,76.8,59.9,30.24,North,350,1.0,1.0,56,0.00,,,0.00,Wunderground v.1.15,2013-08-17 20:19:00,
2013-08-17 16:30:00,76.8,56.2,30.23,NE,56,0.0,5.0,49,0.00,,,0.00,Wunderground v.1.15,2013-08-17 20:30:00,
2013-08-17 16:40:00,77.2,58.7,30.23,East,87,0.0,5.0,53,0.00,,,0.00,Wunderground v.1.15,2013-08-17 20:40:00,
2013-08-17 16:49:00,76.7,58.8,30.24,East,87,0.0,5.0,54,0.00,,,0.00,Wunderground v.1.15,2013-08-17 20:49:00,
2013-08-17 17:00:00,76.8,58.4,30.24,East,87,0.0,5.0,53,0.00,,,0.00,Wunderground v.1.15,2013-08-17 21:00:00,
2013-08-17 17:09:00,77.0,54.6,30.24,SW,236,0.0,5.0,46,0.00,,,0.00,Wunderground v.1.15,2013-08-17 21:09:00,
2013-08-17 17:20:00,76.3,54.0,30.24,SW,236,0.0,5.0,46,0.00,,,0.00,Wunderground v.1.15,2013-08-17 21:20:00,
2013-08-17 17:29:00,74.9,58.6,30.24,SW,229,0.0,5.0,57,0.00,,,0.00,Wunderground v.1.15,2013-08-17 21:29:00,
2013-08-17 17:39:00,74.6,58.8,30.24,SW,229,0.0,5.0,58,0.00,,,0.00,Wunderground v.1.15,2013-08-17 21:39:00,
2013-08-17 17:50:00,73.7,59.9,30.24,SSW,201,0.0,5.0,62,0.00,,,0.00,Wunderground v.1.15,2013-08-17 21:50:00,
2013-08-17 18:00:00,73.7,58.0,30.24,NW,310,0.0,5.0,58,0.00,,,0.00,Wunderground v.1.15,2013-08-17 22:00:00,
2013-08-17 18:09:00,74.4,58.7,30.24,NW,310,0.0,0.0,58,0.00,,,0.00,Wunderground v.1.15,2013-08-17 22:09:00,
2013-08-17 18:19:00,74.9,57.6,30.24,NW,310,0.0,0.0,55,0.00,,,0.00,Wunderground v.1.15,2013-08-17 22:19:00,
2013-08-17 18:30:00,74.9,60.1,30.23,NW,310,0.0,0.0,60,0.00,,,0.00,Wunderground v.1.15,2013-08-17 22:30:00,
2013-08-17 18:40:00,73.3,59.0,30.23,NW,310,0.0,0.0,61,0.00,,,0.00,Wunderground v.1.15,2013-08-17 22:40:00,
2013-08-17 18:49:00,71.8,60.2,30.23,NW,310,0.0,0.0,67,0.00,,,0.00,Wunderground v.1.15,2013-08-17 22:49:00,
2013-08-17 19:00:00,71.1,58.7,30.23,NW,310,0.0,0.0,65,0.00,,,0.00,Wunderground v.1.15,2013-08-17 23:00:00,
2013-08-17 19:10:00,70.4,60.1,30.23,NW,310,0.0,4.0,70,0.00,,,0.00,Wunderground v.1.15,2013-08-17 23:10:00,
2013-08-17 19:19:00,69.6,60.6,30.23,NW,310,0.0,4.0,73,0.00,,,0.00,Wunderground v.1.15,2013-08-17 23:19:00,
2013-08-17 19:29:00,68.6,59.6,30.23,NW,310,0.0,4.0,73,0.00,,,0.00,Wunderground v.1.15,2013-08-17 23:29:00,
2013-08-17 19:40:00,67.3,58.3,30.24,North,8,0.0,4.0,73,0.00,,,0.00,Wunderground v.1.15,2013-08-17 23:40:00,
2013-08-17 19:50:00,66.6,58.4,30.25,NE,46,0.0,4.0,75,0.00,,,0.00,Wunderground v.1.15,2013-08-17 23:50:00,
2013-08-17 20:00:00,65.8,58.0,30.24,NE,46,0.0,4.0,76,0.00,,,0.00,Wunderground v.1.15,2013-08-18 00:00:00,
2013-08-17 20:09:00,65.3,58.6,30.24,NE,46,0.0,4.0,79,0.00,,,0.00,Wunderground v.1.15,2013-08-18 00:09:00,
2013-08-17 20:20:00,64.7,58.4,30.25,NE,46,0.0,4.0,80,0.00,,,0.00,Wunderground v.1.15,2013-08-18 00:20:00,
2013-08-17 20:30:00,63.5,57.2,30.25,NE,46,0.0,4.0,80,0.00,,,0.00,Wunderground v.1.15,2013-08-18 00:30:00,
2013-08-17 20:40:00,62.9,57.3,30.25,NE,46,0.0,4.0,82,0.00,,,0.00,Wunderground v.1.15,2013-08-18 00:40:00,
2013-08-17 20:50:00,62.7,57.1,30.24,NE,46,0.0,4.0,82,0.00,,,0.00,Wunderground v.1.15,2013-08-18 00:50:00,
2013-08-17 21:00:00,62.6,57.4,30.25,NE,46,0.0,4.0,83,0.00,,,0.00,Wunderground v.1.15,2013-08-18 01:00:00,
2013-08-17 21:10:00,62.3,57.1,30.25,NE,46,0.0,4.0,83,0.00,,,0.00,Wunderground v.1.15,2013-08-18 01:10:00,
2013-08-17 21:19:00,61.8,56.9,30.25,NE,46,0.0,4.0,84,0.00,,,0.00,Wunderground v.1.15,2013-08-18 01:19:00,
2013-08-17 21:30:00,61.6,56.7,30.25,NE,46,0.0,4.0,84,0.00,,,0.00,Wunderground v.1.15,2013-08-18 01:30:00,
2013-08-17 21:40:00,61.5,56.9,30.25,NE,46,0.0,4.0,85,0.00,,,0.00,Wunderground v.1.15,2013-08-18 01:40:00,
2013-08-17 21:50:00,61.6,57.0,30.26,NE,46,0.0,4.0,85,0.00,,,0.00,Wunderground v.1.15,2013-08-18 01:50:00,
2013-08-17 21:59:00,61.5,56.9,30.26,NE,46,0.0,4.0,85,0.00,,,0.00,Wunderground v.1.15,2013-08-18 01:59:00,
2013-08-17 22:10:00,60.7,56.5,30.26,NE,46,0.0,4.0,86,0.00,,,0.00,Wunderground v.1.15,2013-08-18 02:10:00,
2013-08-17 22:20:00,60.1,56.8,30.26,NE,46,0.0,4.0,89,0.00,,,0.00,Wunderground v.1.15,2013-08-18 02:20:00,
2013-08-17 22:30:00,59.9,56.6,30.26,NE,46,0.0,4.0,89,0.00,,,0.00,Wunderground v.1.15,2013-08-18 02:30:00,
2013-08-17 22:40:00,59.9,57.0,30.26,NE,46,0.0,4.0,90,0.00,,,0.00,Wunderground v.1.15,2013-08-18 02:40:00,
2013-08-17 22:49:00,59.5,56.9,30.26,NE,46,0.0,4.0,91,0.00,,,0.00,Wunderground v.1.15,2013-08-18 02:49:00,
2013-08-17 22:59:00,59.2,56.9,30.26,NE,46,0.0,4.0,92,0.00,,,0.00,Wunderground v.1.15,2013-08-18 02:59:00,
2013-08-17 23:09:00,59.2,57.2,30.27,NE,46,0.0,4.0,93,0.00,,,0.00,Wunderground v.1.15,2013-08-18 03:09:00,
2013-08-17 23:20:00,59.0,57.0,30.27,NE,46,0.0,4.0,93,0.00,,,0.00,Wunderground v.1.15,2013-08-18 03:20:00,
2013-08-17 23:30:00,58.7,57.0,30.27,NE,46,0.0,4.0,94,0.00,,,0.00,Wunderground v.1.15,2013-08-18 03:30:00,
2013-08-17 23:39:00,58.3,56.9,30.27,NE,46,0.0,4.0,95,0.00,,,0.00,Wunderground v.1.15,2013-08-18 03:39:00,
2013-08-17 23:49:00,58.0,56.6,30.26,NE,46,0.0,4.0,95,0.00,,,0.00,Wunderground v.1.15,2013-08-18 03:49:00,